Time;durP1;ratioP1;P1;durP2;ratioP2;P2;SDS_P1;SDS_P2;PMS_P1;PMS_P2;Temp;Humidity;BMP_temperature;BMP_pressure;BME280_temperature;BME280_humidity;BME280_pressure;Samples;Min_cycle;Max_cycle;Signal;HPM_P1;HPM_P2
2022/12/12 00:01:16;;;;;;;11.75;5.93;;;;;;;-7.08;68.73;91796.16;2051681;69;20206;-71
2022/12/12 00:03:42;;;;;;;16.38;6.43;;;;;;;-7.18;67.21;91793.81;2051449;69;20146;-73
2022/12/12 00:06:07;;;;;;;12.23;6.45;;;;;;;-7.16;67.92;91799.50;2051392;69;20193;-71
2022/12/12 00:08:33;;;;;;;18.55;6.07;;;;;;;-7.03;66.07;91796.09;2051545;69;20941;-71
2022/12/12 00:10:58;;;;;;;14.63;6.20;;;;;;;-7.53;68.54;91811.19;2051473;70;20170;-72
2022/12/12 00:13:24;;;;;;;14.15;5.97;;;;;;;-7.25;66.96;91802.59;2051507;69;20170;-72
2022/12/12 00:15:50;;;;;;;22.58;6.60;;;;;;;-7.17;66.46;91808.22;2051516;70;20173;-72
2022/12/12 00:18:15;;;;;;;12.70;5.80;;;;;;;-7.19;66.87;91808.03;2051514;70;20471;-72
2022/12/12 00:20:41;;;;;;;12.88;5.70;;;;;;;-6.98;66.22;91816.41;2051486;70;20161;-72
2022/12/12 00:23:06;;;;;;;11.68;5.32;;;;;;;-6.87;65.84;91812.75;2051490;70;20149;-72
2022/12/12 00:25:32;;;;;;;15.50;6.43;;;;;;;-7.14;66.43;91809.19;2051444;70;20166;-72
2022/12/12 00:27:59;;;;;;;14.55;6.00;;;;;;;-7.37;66.59;91820.44;2051309;70;20170;-72
2022/12/12 00:30:25;;;;;;;10.00;5.43;;;;;;;-7.14;67.09;91809.19;2051351;70;20154;-72
2022/12/12 00:32:51;;;;;;;14.40;5.05;;;;;;;-7.07;67.44;91812.06;2051223;70;20166;-72
2022/12/12 00:35:16;;;;;;;15.13;5.88;;;;;;;-7.34;68.66;91819.38;2051396;70;20583;-72
2022/12/12 00:37:42;;;;;;;11.93;5.63;;;;;;;-7.35;67.00;91814.44;2051656;70;20181;-72
2022/12/12 00:40:09;;;;;;;13.48;6.03;;;;;;;-7.31;66.28;91823.81;2051378;70;20676;-72
2022/12/12 00:42:35;;;;;;;11.18;5.30;;;;;;;-7.24;66.91;91817.78;2051612;70;20269;-72
2022/12/12 00:45:01;;;;;;;13.05;6.22;;;;;;;-7.29;66.67;91815.84;2051874;69;20583;-73
2022/12/12 00:47:27;;;;;;;12.52;5.75;;;;;;;-7.36;67.25;91812.97;2051529;70;20146;-73
2022/12/12 00:49:52;;;;;;;11.82;4.70;;;;;;;-7.14;66.22;91817.41;2051701;70;20142;-73
2022/12/12 00:52:18;;;;;;;11.35;5.18;;;;;;;-7.24;65.74;91812.31;2051427;70;20169;-73
2022/12/12 00:54:43;;;;;;;10.45;4.60;;;;;;;-7.25;65.87;91815.53;2051752;69;20211;-72
2022/12/12 00:57:09;;;;;;;13.40;5.25;;;;;;;-7.42;66.56;91819.25;2051345;70;20614;-70
2022/12/12 00:59:35;;;;;;;11.00;5.20;;;;;;;-7.37;66.84;91820.44;2051512;70;20151;-71
2022/12/12 01:02:00;;;;;;;10.63;5.15;;;;;;;-7.27;65.41;91821.53;2051522;70;20138;-72
2022/12/12 01:04:32;;;;;;;11.77;5.05;;;;;;;-7.33;65.77;91814.66;2051736;69;20142;-74
2022/12/12 01:06:58;;;;;;;;;;;;;;;-7.28;65.43;91817.34;2051626;70;20185;-72
2022/12/12 01:09:23;;;;;;;10.98;4.63;;;;;;;-7.21;65.52;91819.47;2051396;70;20122;-72
2022/12/12 01:11:49;;;;;;;9.85;4.40;;;;;;;-7.08;65.25;91826.25;2051567;70;20147;-73
2022/12/12 01:14:15;;;;;;;10.60;5.25;;;;;;;-7.25;65.46;91835.41;2051504;70;20142;-73
2022/12/12 01:16:40;;;;;;;10.88;5.10;;;;;;;-7.23;65.60;91832.91;2051187;69;20190;-73
2022/12/12 01:19:06;;;;;;;12.20;5.07;;;;;;;-7.37;65.18;91831.38;2051537;69;20189;-75
2022/12/12 01:21:31;;;;;;;10.52;4.10;;;;;;;-7.29;65.47;91834.97;2051370;69;20162;-74
2022/12/12 01:23:57;;;;;;;7.80;4.43;;;;;;;-7.36;65.24;91841.03;2051185;69;20168;-73
2022/12/12 01:26:23;;;;;;;9.13;4.32;;;;;;;-7.25;65.62;91842.88;2050914;70;20288;-73
2022/12/12 01:28:50;;;;;;;8.73;4.03;;;;;;;-6.94;64.03;91841.47;2051458;69;20190;-73
2022/12/12 01:31:16;;;;;;;13.07;4.75;;;;;;;-7.01;63.23;91839.31;2051273;70;20165;-74
2022/12/12 01:33:44;;;;;;;10.07;4.85;;;;;;;-7.24;64.97;91845.13;2051446;70;20287;-73
2022/12/12 01:36:15;;;;;;;9.60;4.25;;;;;;;-7.43;65.74;91842.34;2051396;70;20686;-74
2022/12/12 01:38:46;;;;;;;12.10;4.83;;;;;;;-7.40;65.40;91839.88;2051346;70;20233;-73
2022/12/12 01:41:13;;;;;;;10.25;4.32;;;;;;;-7.39;64.85;91844.81;2050696;70;20166;-72
2022/12/12 01:43:41;;;;;;;9.65;4.63;;;;;;;-7.19;65.22;91843.56;2051197;70;20181;-74
2022/12/12 01:46:35;;;;;;;11.00;4.93;;;;;;;-7.40;64.58;91857.00;2051163;69;20158;-73
2022/12/12 01:49:09;;;;;;;9.52;4.38;;;;;;;-7.51;65.30;91862.63;2050906;70;20147;-73
2022/12/12 01:51:39;;;;;;;7.55;4.10;;;;;;;-7.38;65.13;91865.41;2051320;69;20158;-73
2022/12/12 01:54:13;;;;;;;8.35;4.13;;;;;;;-7.34;65.24;91857.66;2051450;70;20241;-73
2022/12/12 01:56:42;;;;;;;10.20;4.07;;;;;;;-7.25;65.00;91854.56;2051326;70;20158;-72
2022/12/12 01:59:11;;;;;;;8.93;4.03;;;;;;;-7.19;63.52;91849.78;2051522;70;20146;-73
2022/12/12 02:01:38;;;;;;;8.57;3.55;;;;;;;-7.16;63.59;91848.72;2051316;69;20182;-73
2022/12/12 02:04:06;;;;;;;8.48;4.20;;;;;;;-7.50;64.80;91853.16;2051404;69;20147;-74
2022/12/12 02:06:32;;;;;;;8.00;4.03;;;;;;;-7.51;64.49;91852.41;2050748;70;20151;-73
2022/12/12 02:09:01;;;;;;;9.68;4.00;;;;;;;-7.48;64.50;91861.56;2051355;69;20153;-72
2022/12/12 02:11:29;;;;;;;7.78;3.53;;;;;;;-7.44;64.66;91857.28;2051451;69;20481;-72
2022/12/12 02:13:56;;;;;;;8.35;3.97;;;;;;;-7.62;65.14;91858.00;2051354;69;20180;-73
2022/12/12 02:16:32;;;;;;;10.25;3.65;;;;;;;-7.53;64.68;91862.38;2051350;70;20149;-75
2022/12/12 02:19:33;;;;;;;10.20;3.80;;;;;;;-7.47;64.72;91865.78;2051326;69;20188;-74
2022/12/12 02:22:17;;;;;;;7.53;3.88;;;;;;;-7.47;65.10;91863.81;2046863;70;20253;-73
2022/12/12 02:25:02;;;;;;;8.55;4.43;;;;;;;-7.69;65.75;91864.81;2051391;70;20598;-73
2022/12/12 02:27:58;;;;;;;10.00;4.45;;;;;;;-7.61;64.77;91861.47;2051316;70;20130;-74
2022/12/12 02:30:44;;;;;;;9.18;4.10;;;;;;;-7.64;65.04;91860.53;2051174;70;20182;-73
2022/12/12 02:33:33;;;;;;;11.88;4.15;;;;;;;-7.54;64.02;91869.84;2051292;70;20554;-74
2022/12/12 02:36:05;;;;;;;7.95;3.65;;;;;;;-7.56;63.71;91860.66;2051286;69;20253;-73
2022/12/12 02:39:03;;;;;;;7.45;3.58;;;;;;;-7.57;63.71;91862.66;2050591;70;20229;-72
2022/12/12 02:41:41;;;;;;;13.75;3.88;;;;;;;-7.54;64.35;91858.16;2046983;70;20166;-72
2022/12/12 02:44:27;;;;;;;7.32;3.30;;;;;;;-7.50;63.77;91861.34;2051198;70;20166;-73
2022/12/12 02:47:10;;;;;;;6.88;3.72;;;;;;;-7.69;65.49;91858.59;2051364;70;20631;-72
2022/12/12 02:49:52;;;;;;;7.45;3.60;;;;;;;-7.65;64.81;91864.53;2051378;70;20241;-72
2022/12/12 02:52:19;;;;;;;7.50;3.70;;;;;;;-7.61;64.72;91856.75;2050737;70;20674;-74
2022/12/12 02:54:44;;;;;;;8.30;3.53;;;;;;;-7.54;64.95;91856.19;2050657;70;20214;-72
2022/12/12 02:57:20;;;;;;;8.73;3.90;;;;;;;-7.77;65.76;91858.41;2051292;70;20158;-72
2022/12/12 02:59:50;;;;;;;7.63;3.95;;;;;;;-7.87;64.97;91851.84;2051296;70;20578;-72
2022/12/12 03:02:50;;;;;;;8.75;3.67;;;;;;;-7.79;65.05;91854.72;2051064;70;20150;-75
2022/12/12 03:08:31;;;;;;;6.50;3.65;;;;;;;-7.78;64.52;91856.94;2048181;70;20143;-74
2022/12/12 03:11:10;;;;;;;7.07;3.25;;;;;;;-7.77;64.09;91854.97;2047836;70;20216;-75
2022/12/12 03:13:39;;;;;;;8.63;3.38;;;;;;;-7.64;64.52;91854.31;2048095;70;20162;-74
2022/12/12 03:16:23;;;;;;;8.07;3.75;;;;;;;-7.63;64.25;91853.06;2048961;70;20555;-72
2022/12/12 03:18:58;;;;;;;11.35;4.18;;;;;;;-7.85;65.65;91854.78;2051026;70;20628;-73
2022/12/12 03:21:28;;;;;;;8.98;3.80;;;;;;;-7.79;64.95;91858.22;2051367;70;20178;-73
2022/12/12 03:24:01;;;;;;;9.93;3.70;;;;;;;-7.60;64.50;91849.31;2051045;69;20265;-72
2022/12/12 03:26:53;;;;;;;7.78;3.53;;;;;;;-7.64;65.76;91855.06;2051384;70;20650;-73
2022/12/12 03:29:57;;;;;;;8.55;3.17;;;;;;;-7.75;65.81;91857.91;2050149;70;20679;-73
2022/12/12 03:32:31;;;;;;;14.32;3.90;;;;;;;-7.82;65.94;91863.97;2046038;70;20230;-73
2022/12/12 03:35:15;;;;;;;11.00;3.47;;;;;;;-7.82;65.59;91861.22;2052028;70;20142;-73
2022/12/12 03:37:54;;;;;;;12.00;4.18;;;;;;;-7.83;65.16;91854.28;2051450;69;20239;-73
2022/12/12 03:40:34;;;;;;;13.10;3.72;;;;;;;-7.76;65.04;91856.44;2050622;70;20170;-73
2022/12/12 03:43:12;;;;;;;9.38;3.50;;;;;;;-7.62;64.73;91852.53;2051007;69;20149;-73
2022/12/12 03:45:50;;;;;;;7.68;3.58;;;;;;;-7.47;65.12;91852.09;2051063;69;20157;-73
2022/12/12 03:48:30;;;;;;;6.60;3.47;;;;;;;-7.54;64.88;91861.66;2051257;69;20154;-73
2022/12/12 03:51:19;;;;;;;8.88;3.67;;;;;;;-7.64;64.40;91855.06;2051057;70;20538;-73
2022/12/12 03:53:45;;;;;;;12.05;3.78;;;;;;;-7.63;64.13;91850.31;2051044;69;20209;-73
2022/12/12 03:56:20;;;;;;;6.85;2.95;;;;;;;-7.63;64.68;91848.34;2051124;70;20177;-73
2022/12/12 03:58:55;;;;;;;9.00;3.90;;;;;;;-7.70;64.85;91849.66;2051324;70;20161;-72
2022/12/12 04:01:26;;;;;;;12.30;3.78;;;;;;;-7.87;65.37;91845.63;2051126;69;20614;-73
2022/12/12 04:04:04;;;;;;;9.75;3.60;;;;;;;-7.59;65.48;91848.03;2047848;70;20325;-72
2022/12/12 04:06:46;;;;;;;7.25;3.35;;;;;;;-7.52;64.89;91850.91;2050735;70;20237;-72
2022/12/12 04:15:09;;;;;;;15.80;3.38;;;;;;;-7.87;66.33;91845.63;2051090;69;20333;-73
2022/12/12 04:17:43;;;;;;;12.85;3.92;;;;;;;-7.77;66.02;91846.75;2051329;70;20260;-73
2022/12/12 04:23:43;;;;;;;8.15;3.42;;;;;;;-7.64;65.34;91852.31;2051060;70;20217;-72
2022/12/12 04:29:18;;;;;;;8.68;3.50;;;;;;;-7.49;65.17;91847.16;2050955;70;20214;-74
2022/12/12 04:32:08;;;;;;;5.63;2.90;;;;;;;-7.52;64.94;91850.19;2051206;70;20216;-73
2022/12/12 04:34:49;;;;;;;8.88;3.88;;;;;;;-7.56;65.61;91847.75;2051250;69;20153;-72
2022/12/12 04:37:20;;;;;;;13.30;4.07;;;;;;;-7.69;65.39;91842.19;2051122;70;20276;-73
2022/12/12 04:39:50;;;;;;;7.45;3.85;;;;;;;-7.63;65.69;91833.94;2050772;70;20145;-73
2022/12/12 04:42:20;;;;;;;13.15;3.85;;;;;;;-7.71;66.08;91847.44;2051088;70;20142;-72
2022/12/12 04:44:49;;;;;;;14.70;4.20;;;;;;;-7.60;65.80;91854.78;2051091;70;20559;-72
2022/12/12 04:47:17;;;;;;;7.97;3.70;;;;;;;-7.61;65.08;91853.28;2051207;69;20162;-72
2022/12/12 04:49:46;;;;;;;15.65;4.53;;;;;;;-7.53;65.61;91852.19;2051006;70;20147;-74
2022/12/12 04:52:15;;;;;;;15.27;5.32;;;;;;;-7.48;65.25;91853.38;2051221;70;20181;-71
2022/12/12 04:55:00;;;;;;;16.15;7.05;;;;;;;-7.44;65.67;91860.03;2050476;70;20142;-72
2022/12/12 04:57:32;;;;;;;17.52;6.45;;;;;;;-7.46;65.91;91864.53;2051258;69;20170;-72
2022/12/12 04:59:59;;;;;;;27.17;8.18;;;;;;;-7.47;65.59;91863.03;2047956;70;20149;-73
2022/12/12 05:02:44;;;;;;;32.65;9.73;;;;;;;-7.38;65.86;91864.69;2051301;69;20150;-73
2022/12/12 05:05:13;;;;;;;19.42;7.30;;;;;;;-7.40;65.81;91861.75;2051052;69;20158;-74
2022/12/12 05:07:49;;;;;;;32.28;10.55;;;;;;;-7.74;66.86;91864.88;2051161;70;20237;-74
2022/12/12 05:10:17;;;;;;;40.00;13.52;;;;;;;-7.59;65.60;91851.50;2051078;70;20153;-74
2022/12/12 05:12:48;;;;;;;52.60;14.68;;;;;;;-7.61;66.41;91856.75;2051146;69;20222;-74
2022/12/12 05:15:16;;;;;;;66.10;25.13;;;;;;;-7.53;66.52;91865.13;2051065;70;20147;-72
2022/12/12 05:18:01;;;;;;;67.35;21.33;;;;;;;-7.50;67.27;91862.09;2051005;70;20223;-73
2022/12/12 05:20:29;;;;;;;64.60;23.80;;;;;;;-7.29;65.96;91870.53;2050982;69;20154;-73
2022/12/12 05:22:54;;;;;;;62.47;21.20;;;;;;;-7.34;66.11;91873.34;2050905;69;20249;-73
2022/12/12 05:25:20;;;;;;;60.08;21.95;;;;;;;-7.43;66.49;91866.97;2050860;70;20332;-73
2022/12/12 05:27:47;;;;;;;69.18;22.50;;;;;;;-7.47;65.20;91866.53;2051216;70;20157;-72
2022/12/12 05:30:12;;;;;;;57.28;19.45;;;;;;;-7.38;66.09;91865.41;2051327;70;20146;-73
2022/12/12 05:32:38;;;;;;;56.47;21.65;;;;;;;-7.56;66.28;91861.44;2051390;70;20158;-75
2022/12/12 05:35:05;;;;;;;61.55;21.13;;;;;;;-7.42;66.50;91868.47;2050883;70;20166;-76
2022/12/12 05:37:31;;;;;;;48.63;16.98;;;;;;;-7.57;66.48;91870.88;2051586;69;20248;-74
2022/12/12 05:39:57;;;;;;;37.10;12.25;;;;;;;-7.50;66.38;91872.28;2051394;69;20154;-75
2022/12/12 05:42:23;;;;;;;36.40;13.77;;;;;;;-7.60;66.00;91871.19;2051580;69;20153;-76
2022/12/12 05:44:50;;;;;;;55.67;18.48;;;;;;;-7.63;66.72;91864.00;2051404;70;20138;-75
2022/12/12 05:47:17;;;;;;;55.08;20.17;;;;;;;-7.58;66.94;91872.13;2051551;70;20576;-75
2022/12/12 05:49:43;;;;;;;61.70;22.80;;;;;;;-7.64;66.59;91868.00;2051468;70;20154;-75
2022/12/12 05:52:10;;;;;;;52.15;19.35;;;;;;;-7.64;66.34;91876.94;2051434;69;20610;-74
2022/12/12 05:54:39;;;;;;;47.15;17.67;;;;;;;-7.63;66.77;91886.59;2051266;69;20246;-74
2022/12/12 05:57:05;;;;;;;43.58;15.48;;;;;;;-7.57;65.86;91884.53;2051548;69;20142;-74
2022/12/12 05:59:33;;;;;;;50.20;18.52;;;;;;;-7.67;66.26;91883.41;2051496;70;20218;-73
2022/12/12 06:01:58;;;;;;;58.72;18.90;;;;;;;-7.75;66.80;91882.50;2051548;70;20150;-73
2022/12/12 06:04:24;;;;;;;50.33;16.55;;;;;;;-7.71;66.42;91883.69;2051483;70;20138;-73
2022/12/12 06:06:49;;;;;;;45.20;18.23;;;;;;;-7.74;66.08;91890.19;2051357;70;20134;-76
2022/12/12 06:09:15;;;;;;;47.75;19.38;;;;;;;-7.75;66.23;91885.22;2051340;69;20158;-76
2022/12/12 06:11:44;;;;;;;51.90;22.17;;;;;;;-7.86;66.69;91890.81;2051486;70;20328;-76
2022/12/12 06:14:09;;;;;;;50.25;21.80;;;;;;;-7.75;67.03;91885.22;2050843;70;20170;-75
2022/12/12 06:16:35;;;;;;;52.33;19.60;;;;;;;-7.98;68.56;91895.66;2051637;69;20602;-73
2022/12/12 06:19:01;;;;;;;48.67;18.90;;;;;;;-7.93;67.56;91905.78;2053070;70;20579;-72
2022/12/12 06:21:27;;;;;;;36.83;14.77;;;;;;;-8.00;67.56;91898.91;2053289;69;20154;-73
2022/12/12 06:23:54;;;;;;;39.83;16.98;;;;;;;-7.81;66.96;91898.97;2053244;69;20178;-74
2022/12/12 06:26:20;;;;;;;45.35;17.73;;;;;;;-7.74;66.94;91909.34;2051398;70;20495;-74
2022/12/12 06:28:47;;;;;;;45.17;18.20;;;;;;;-7.79;66.29;91910.13;2051401;69;20189;-74
2022/12/12 06:31:13;;;;;;;36.10;16.05;;;;;;;-7.74;66.70;91914.06;2051386;70;20679;-74
2022/12/12 06:33:41;;;;;;;44.90;17.77;;;;;;;-7.82;66.47;91913.88;2051430;69;20154;-73
2022/12/12 06:36:18;;;;;;;40.63;14.63;;;;;;;-7.79;66.10;91915.59;2050821;70;20186;-73
2022/12/12 06:38:44;;;;;;;34.95;14.13;;;;;;;-7.76;67.10;91916.56;2051297;70;20238;-73
2022/12/12 06:41:12;;;;;;;34.85;14.52;;;;;;;-7.78;67.46;91908.13;2051433;70;20192;-75
2022/12/12 06:43:39;;;;;;;67.85;22.02;;;;;;;-8.30;70.21;91906.34;2051448;69;20150;-75
2022/12/12 06:46:09;;;;;;;69.05;21.15;;;;;;;-8.00;69.50;91906.34;2051592;69;20150;-74
2022/12/12 06:48:35;;;;;;;40.97;14.63;;;;;;;-7.85;67.98;91906.69;2051494;70;20134;-73
2022/12/12 06:51:12;;;;;;;36.90;14.98;;;;;;;-7.87;66.91;91914.69;2051312;70;20498;-74
2022/12/12 06:53:37;;;;;;;36.20;13.23;;;;;;;-7.86;67.66;91916.16;2051405;69;20226;-74
2022/12/12 06:56:08;;;;;;;33.45;13.13;;;;;;;-7.82;67.74;91918.59;2051561;70;20226;-75
2022/12/12 06:58:34;;;;;;;32.85;13.70;;;;;;;-7.75;67.14;91918.75;2051388;70;20189;-74
2022/12/12 07:01:00;;;;;;;44.53;14.20;;;;;;;-7.76;68.05;91922.75;2051336;69;20526;-75
2022/12/12 07:03:27;;;;;;;32.97;13.65;;;;;;;-7.64;67.74;91933.59;2051251;70;20145;-76
2022/12/12 07:05:52;;;;;;;35.67;14.88;;;;;;;-7.57;67.35;91930.25;2051388;70;20174;-73
2022/12/12 07:08:18;;;;;;;40.70;15.60;;;;;;;-7.59;67.42;91928.06;2051351;70;20225;-73
2022/12/12 07:10:43;;;;;;;37.20;14.43;;;;;;;-7.65;67.51;91940.28;2051141;70;20209;-74
2022/12/12 07:13:11;;;;;;;38.80;15.77;;;;;;;-7.56;67.60;91929.78;2051355;70;20174;-72
2022/12/12 07:15:44;;;;;;;38.50;15.57;;;;;;;-7.43;67.81;91942.78;2051296;70;20145;-72
2022/12/12 07:18:09;;;;;;;32.38;13.27;;;;;;;-7.42;67.13;91939.56;2051409;70;20201;-74
2022/12/12 07:20:39;;;;;;;46.50;15.75;;;;;;;-7.42;67.53;91933.34;2051351;70;20606;-75
2022/12/12 07:23:05;;;;;;;50.97;17.95;;;;;;;-7.34;67.78;91938.97;2051466;70;20154;-76
2022/12/12 07:25:30;;;;;;;44.50;16.67;;;;;;;-7.27;67.54;91946.59;2051265;70;20650;-74
2022/12/12 07:27:57;;;;;;;41.75;16.08;;;;;;;-7.23;67.75;91941.59;2051594;70;20157;-75
2022/12/12 07:30:23;;;;;;;37.28;15.93;;;;;;;-7.13;67.29;91945.44;2051810;70;20604;-75
2022/12/12 07:32:51;;;;;;;43.30;15.63;;;;;;;-7.19;67.64;91948.25;2051972;70;20160;-75
2022/12/12 07:35:16;;;;;;;36.58;15.23;;;;;;;-7.13;67.50;91947.44;2051663;70;20149;-75
2022/12/12 07:37:42;;;;;;;35.60;15.30;;;;;;;-7.13;68.09;91950.19;2051563;70;20156;-76
2022/12/12 07:40:08;;;;;;;33.78;15.02;;;;;;;-6.90;67.43;91956.84;2050787;70;20601;-77
2022/12/12 07:42:34;;;;;;;38.85;14.60;;;;;;;-6.91;67.34;91947.91;2051405;70;20174;-77
2022/12/12 07:44:59;;;;;;;37.28;14.95;;;;;;;-7.02;67.93;91963.72;2051412;70;20206;-76
2022/12/12 07:47:25;;;;;;;45.60;17.48;;;;;;;-6.73;67.09;91957.38;2051764;70;20154;-73
2022/12/12 07:49:51;;;;;;;49.97;19.73;;;;;;;-6.69;66.70;91962.53;2051548;70;20603;-74
2022/12/12 07:52:16;;;;;;;67.85;30.00;;;;;;;-6.72;66.76;91963.59;2051299;70;20563;-75
2022/12/12 07:54:42;;;;;;;76.45;30.13;;;;;;;-6.78;67.21;91960.94;2051389;70;20154;-76
2022/12/12 07:57:08;;;;;;;68.22;27.13;;;;;;;-6.67;67.17;91963.53;2051221;70;20138;-75
2022/12/12 07:59:34;;;;;;;66.72;25.80;;;;;;;-6.58;67.49;91970.63;2051268;70;20166;-75
2022/12/12 08:01:59;;;;;;;62.80;24.65;;;;;;;-6.42;67.14;91972.38;2051260;70;20197;-76
2022/12/12 08:04:25;;;;;;;57.83;23.00;;;;;;;-6.32;67.14;91964.56;2051273;70;20230;-78
2022/12/12 08:06:50;;;;;;;40.08;17.65;;;;;;;-6.19;66.82;91972.06;2051440;70;20186;-75
2022/12/12 08:09:16;;;;;;;31.23;13.73;;;;;;;-6.07;66.65;91965.16;2051045;70;20150;-76
2022/12/12 08:11:42;;;;;;;27.42;13.07;;;;;;;-6.03;67.03;91970.34;2051091;70;20169;-74
2022/12/12 08:14:08;;;;;;;27.08;12.80;;;;;;;-5.93;66.51;91963.19;2051111;70;20146;-74
2022/12/12 08:16:33;;;;;;;31.85;13.13;;;;;;;-5.92;66.00;91970.91;2051218;70;20245;-75
2022/12/12 08:18:59;;;;;;;38.47;12.68;;;;;;;-5.80;65.96;91967.97;2051633;70;20169;-73
2022/12/12 08:21:26;;;;;;;33.55;12.43;;;;;;;-5.66;65.75;91970.19;2051613;70;20170;-76
2022/12/12 08:23:56;;;;;;;30.95;12.63;;;;;;;-5.88;65.08;91979.53;2051592;69;20220;-75
2022/12/12 08:26:21;;;;;;;32.72;14.20;;;;;;;-5.76;66.29;91979.38;2051866;69;20567;-77
2022/12/12 08:28:48;;;;;;;37.83;16.23;;;;;;;-5.73;65.22;91981.78;2051125;70;20185;-77
2022/12/12 08:31:16;;;;;;;36.95;13.77;;;;;;;-5.64;65.06;91986.84;2051859;69;20225;-75
2022/12/12 08:33:41;;;;;;;45.42;15.32;;;;;;;-5.86;65.34;91990.00;2051792;69;20138;-76
2022/12/12 08:36:11;;;;;;;42.13;15.88;;;;;;;-5.41;65.27;91997.47;2051862;70;20150;-76
2022/12/12 08:38:37;;;;;;;32.92;15.25;;;;;;;-5.31;64.92;91998.56;2051688;70;20189;-75
2022/12/12 08:41:02;;;;;;;26.17;11.20;;;;;;;-5.46;64.56;91993.53;2051584;70;20209;-76
2022/12/12 08:43:28;;;;;;;24.42;9.63;;;;;;;-5.42;62.74;92006.97;2051642;69;20225;-75
2022/12/12 08:46:01;;;;;;;22.90;10.25;;;;;;;-5.46;62.31;92001.03;2051663;69;20152;-75
2022/12/12 08:48:27;;;;;;;16.45;6.53;;;;;;;-5.31;61.68;92000.53;2051640;70;20226;-74
2022/12/12 08:50:53;;;;;;;18.20;6.80;;;;;;;-5.09;61.34;92002.88;2051649;69;20262;-74
2022/12/12 08:53:19;;;;;;;15.07;6.75;;;;;;;-4.92;59.94;92008.06;2051710;70;20269;-74
2022/12/12 08:55:44;;;;;;;19.13;8.00;;;;;;;-4.83;60.16;92007.66;2051511;69;20150;-77
2022/12/12 08:58:10;;;;;;;17.48;7.22;;;;;;;-4.73;59.67;92005.94;2051844;70;20154;-76
2022/12/12 09:00:36;;;;;;;14.88;7.38;;;;;;;-4.76;59.55;92020.00;2051571;70;20458;-77
2022/12/12 09:03:02;;;;;;;16.90;7.38;;;;;;;-4.59;59.72;92014.91;2051617;70;20170;-75
2022/12/12 09:05:27;;;;;;;14.77;6.88;;;;;;;-4.50;58.57;92011.72;2051619;70;20559;-76
2022/12/12 09:07:53;;;;;;;12.70;5.35;;;;;;;-4.49;57.50;92010.47;2051583;70;20181;-77
2022/12/12 09:10:19;;;;;;;11.90;5.82;;;;;;;-4.32;57.52;92010.13;2050960;70;20143;-74
2022/12/12 09:12:44;;;;;;;15.70;6.53;;;;;;;-4.22;57.70;92015.91;2051564;69;20173;-74
2022/12/12 09:15:10;;;;;;;13.95;5.68;;;;;;;-4.81;55.82;92012.59;2051705;70;20155;-76
2022/12/12 09:17:35;;;;;;;20.63;7.05;;;;;;;-4.36;56.46;92021.44;2051648;70;20158;-75
2022/12/12 09:20:02;;;;;;;19.40;6.25;;;;;;;-4.13;55.29;92016.19;2051929;69;20248;-74
2022/12/12 09:22:27;;;;;;;13.07;5.68;;;;;;;-4.19;56.05;92015.59;2051669;69;20158;-74
2022/12/12 09:24:53;;;;;;;16.52;7.35;;;;;;;-4.26;55.58;92023.72;2051415;70;20157;-74
2022/12/12 09:27:19;;;;;;;22.40;8.23;;;;;;;-4.22;56.39;92021.41;2051478;70;20304;-75
2022/12/12 09:29:44;;;;;;;17.15;7.07;;;;;;;-4.45;55.84;92029.38;2051462;70;20272;-74
2022/12/12 09:32:10;;;;;;;21.83;8.35;;;;;;;-4.39;57.11;92027.25;2051533;70;20146;-75
2022/12/12 09:34:37;;;;;;;20.77;8.00;;;;;;;-4.83;57.55;92023.38;2051573;69;20180;-76
2022/12/12 09:37:04;;;;;;;17.15;7.72;;;;;;;-4.65;56.62;92017.03;2051529;69;20238;-75
2022/12/12 09:39:29;;;;;;;21.80;8.18;;;;;;;-4.51;56.13;92026.75;2051497;70;20173;-76
2022/12/12 09:41:55;;;;;;;18.90;7.72;;;;;;;-4.47;56.59;92016.16;2051467;69;20146;-76
2022/12/12 09:44:23;;;;;;;14.90;7.38;;;;;;;-4.37;56.90;92000.72;2051486;69;20138;-76
2022/12/12 09:46:56;;;;;;;20.50;8.15;;;;;;;-4.60;56.67;92002.44;2051548;70;20146;-77
2022/12/12 09:49:25;;;;;;;23.00;8.32;;;;;;;-4.37;56.78;92008.22;2051541;69;20217;-78
2022/12/12 09:51:51;;;;;;;23.40;8.00;;;;;;;-4.66;56.04;92004.56;2051502;70;20146;-77
2022/12/12 09:54:22;;;;;;;15.65;7.50;;;;;;;-3.43;57.01;91999.13;2051404;70;20153;-77
2022/12/12 09:56:58;;;;;;;25.10;8.60;;;;;;;-3.13;57.60;91998.59;2051647;70;20700;-75
2022/12/12 09:59:36;;;;;;;17.88;8.38;;;;;;;-2.81;55.53;91987.25;2051712;70;20146;-76
2022/12/12 10:02:42;;;;;;;16.50;7.50;;;;;;;-3.31;54.69;91994.06;2051454;70;20164;-75
2022/12/12 10:05:24;;;;;;;21.35;8.20;;;;;;;-2.19;54.93;91995.84;2051735;70;20142;-76
2022/12/12 10:08:02;;;;;;;16.25;6.70;;;;;;;-1.98;52.64;91987.44;2051553;69;20219;-76
2022/12/12 10:10:33;;;;;;;21.70;8.98;;;;;;;-1.46;53.33;91980.56;2051688;70;20157;-77
2022/12/12 10:13:01;;;;;;;24.85;8.75;;;;;;;-0.92;52.07;91980.56;2051765;70;20143;-78
2022/12/12 10:15:36;;;;;;;32.95;13.60;;;;;;;-0.51;48.82;91977.34;2051447;69;20352;-75
2022/12/12 10:18:11;;;;;;;17.25;7.20;;;;;;;0.17;49.53;91970.09;2051429;69;20154;-78
2022/12/12 10:20:46;;;;;;;14.10;7.25;;;;;;;0.83;48.32;91968.03;2051408;69;20158;-77
2022/12/12 10:23:18;;;;;;;16.45;7.80;;;;;;;1.08;47.28;91970.78;2051473;69;20606;-78
2022/12/12 10:26:07;;;;;;;18.67;11.00;;;;;;;0.98;45.11;91964.41;2051367;69;20194;-76
2022/12/12 10:28:34;;;;;;;17.35;7.60;;;;;;;2.01;46.13;91957.44;2051462;69;20412;-76
2022/12/12 10:31:18;;;;;;;19.88;8.27;;;;;;;2.42;44.04;91955.09;2051387;69;20247;-75
2022/12/12 10:33:46;;;;;;;37.03;20.15;;;;;;;2.66;42.03;91959.03;2051529;70;20143;-75
2022/12/12 10:36:36;;;;;;;15.07;8.07;;;;;;;3.97;40.48;91958.31;2051260;70;20190;-75
2022/12/12 10:39:15;;;;;;;15.55;8.32;;;;;;;3.44;40.46;91960.03;2051696;70;20154;-76
2022/12/12 10:42:25;;;;;;;10.35;6.57;;;;;;;4.27;40.51;91957.00;2051418;70;20154;-75
2022/12/12 10:45:21;;;;;;;12.60;6.45;;;;;;;4.03;38.66;91953.94;2050678;70;20154;-77
2022/12/12 10:47:49;;;;;;;16.73;6.47;;;;;;;4.65;38.40;91949.88;2051571;69;20166;-78
2022/12/12 10:50:24;;;;;;;14.02;6.80;;;;;;;5.70;36.43;91941.63;2051441;70;20149;-77
2022/12/12 10:52:50;;;;;;;28.90;10.82;;;;;;;4.80;35.90;91949.53;2051449;69;20162;-77
2022/12/12 10:55:29;;;;;;;12.77;6.78;;;;;;;7.56;35.35;91939.97;2051318;70;20673;-77
2022/12/12 10:58:00;;;;;;;12.93;6.07;;;;;;;8.38;33.09;91951.78;2051860;70;20185;-80
2022/12/12 11:00:32;;;;;;;33.45;14.63;;;;;;;7.02;34.58;91949.34;2053064;70;20173;-79
2022/12/12 11:02:58;;;;;;;16.55;7.85;;;;;;;8.34;32.47;91945.19;2054150;70;20146;-79
2022/12/12 11:05:33;;;;;;;11.18;5.43;;;;;;;6.87;32.41;91948.47;2053333;70;20181;-79
2022/12/12 11:08:03;;;;;;;10.07;5.50;;;;;;;4.98;33.08;91942.44;2054386;69;20146;-76
2022/12/12 11:10:34;;;;;;;15.68;8.60;;;;;;;2.83;35.37;91938.75;2052596;70;20146;-76
2022/12/12 11:13:09;;;;;;;16.55;9.10;;;;;;;1.38;38.18;91939.28;2052911;70;20166;-75
2022/12/12 11:15:56;;;;;;;15.65;8.20;;;;;;;1.85;39.08;91933.97;2052499;69;20142;-77
2022/12/12 11:18:23;;;;;;;24.30;11.05;;;;;;;1.45;39.47;91923.84;2052233;70;20154;-76
2022/12/12 11:20:54;;;;;;;22.23;9.63;;;;;;;1.31;39.76;91929.00;2052226;70;20594;-75
2022/12/12 11:23:23;;;;;;;18.33;8.43;;;;;;;1.00;40.07;91928.53;2051701;70;20522;-75
2022/12/12 11:25:56;;;;;;;17.85;8.68;;;;;;;0.52;40.76;91925.97;2051562;70;20193;-75
2022/12/12 11:28:25;;;;;;;11.85;6.38;;;;;;;0.18;40.75;91930.06;2053181;70;20503;-75
2022/12/12 11:30:53;;;;;;;7.90;4.95;;;;;;;0.04;40.73;91931.59;2056277;70;20166;-74
2022/12/12 11:33:21;;;;;;;20.67;8.57;;;;;;;-0.21;41.19;91928.78;2056849;70;20147;-73
2022/12/12 11:35:54;;;;;;;22.60;8.65;;;;;;;-1.25;43.08;91935.47;2052745;70;20146;-76
2022/12/12 11:38:26;;;;;;;27.17;10.23;;;;;;;-1.21;44.56;91938.59;2052538;70;20158;-75
2022/12/12 11:41:07;;;;;;;25.25;9.50;;;;;;;-1.40;45.86;91931.41;2051853;69;20563;-75
2022/12/12 11:43:51;;;;;;;23.08;10.35;;;;;;;-1.22;45.39;91935.09;2051480;70;20639;-77
2022/12/12 11:46:28;;;;;;;30.45;10.93;;;;;;;-1.57;45.86;91929.19;2051565;70;20150;-75
2022/12/12 11:48:58;;;;;;;38.75;12.70;;;;;;;-1.87;46.19;91929.19;2051649;70;20186;-75
2022/12/12 11:51:44;;;;;;;26.77;11.15;;;;;;;-2.06;46.06;91935.75;2051410;70;20233;-75
2022/12/12 11:54:30;;;;;;;23.40;9.52;;;;;;;-1.92;46.72;91924.56;2051984;69;20591;-75
2022/12/12 11:56:57;;;;;;;26.80;10.23;;;;;;;-2.06;46.60;91921.97;2052020;69;20151;-75